createdAt,value
2022-11-28T00:01:31.196Z,99651.63
2022-11-28T00:03:58.230Z,99638.03
2022-11-28T00:06:26.596Z,99637.19
2022-11-28T00:08:54.146Z,99631.47
2022-11-28T00:11:20.811Z,99639.38
2022-11-28T00:13:47.807Z,99632.13
2022-11-28T00:16:18.558Z,99628.78
2022-11-28T00:18:45.303Z,99627.13
2022-11-28T00:21:14.424Z,99630.13
2022-11-28T00:23:42.537Z,99625.22
2022-11-28T00:26:24.464Z,99623.03
2022-11-28T00:28:51.779Z,99617.00
2022-11-28T00:31:24.087Z,99623.38
2022-11-28T00:33:51.569Z,99617.31
2022-11-28T00:36:19.376Z,99615.97
2022-11-28T00:38:46.327Z,99606.25
2022-11-28T00:41:18.734Z,99605.56
2022-11-28T00:43:46.311Z,99608.25
2022-11-28T00:46:14.036Z,99606.88
2022-11-28T00:48:41.179Z,99607.91
2022-11-28T00:51:14.293Z,99605.91
2022-11-28T00:53:42.695Z,99602.56
2022-11-28T00:56:12.013Z,99611.63
2022-11-28T00:58:39.676Z,99605.41
2022-11-28T01:01:15.622Z,99611.28
2022-11-28T01:03:43.180Z,99610.28
2022-11-28T01:06:11.545Z,99606.59
2022-11-28T01:08:38.315Z,99618.56
2022-11-28T01:11:12.282Z,99614.53
2022-11-28T01:13:39.978Z,99616.19
2022-11-28T01:16:07.228Z,99621.75
2022-11-28T01:18:33.970Z,99607.78
2022-11-28T01:21:00.642Z,99603.59
2022-11-28T01:23:27.298Z,99610.16
2022-11-28T01:25:54.019Z,99603.91
2022-11-28T01:28:20.707Z,99599.72
2022-11-28T01:30:47.413Z,99603.41
2022-11-28T01:33:14.118Z,99594.03
2022-11-28T01:35:40.882Z,99599.22
2022-11-28T01:38:07.569Z,99596.19
2022-11-28T01:40:34.352Z,99602.22
2022-11-28T01:43:01.029Z,99599.19
2022-11-28T01:45:33.030Z,99597.00
2022-11-28T01:48:03.034Z,99603.91
2022-11-28T01:50:31.405Z,99609.28
2022-11-28T01:53:01.602Z,99602.72
2022-11-28T01:55:34.389Z,99609.59
2022-11-28T01:58:01.111Z,99617.63
2022-11-28T02:00:27.960Z,99610.91
2022-11-28T02:03:11.103Z,99616.63
2022-11-28T02:05:37.860Z,99611.22
2022-11-28T02:08:05.114Z,99610.91
2022-11-28T02:10:48.518Z,99604.16
2022-11-28T02:13:29.004Z,99600.09
2022-11-28T02:15:55.713Z,99593.38
2022-11-28T02:18:38.459Z,99591.03
2022-11-28T02:21:08.193Z,99594.06
2022-11-28T02:23:46.971Z,99588.31
2022-11-28T02:26:34.633Z,99583.59
2022-11-28T02:29:42.949Z,99585.09
2022-11-28T02:32:15.238Z,99579.53
2022-11-28T02:35:03.109Z,99577.50
2022-11-28T02:37:37.681Z,99584.50
2022-11-28T02:40:24.392Z,99588.34
2022-11-28T02:42:58.917Z,99584.63
2022-11-28T02:45:31.892Z,99580.75
2022-11-28T02:48:04.150Z,99578.38
2022-11-28T02:50:36.179Z,99578.03
2022-11-28T02:53:20.506Z,99571.31
2022-11-28T02:55:47.904Z,99572.59
2022-11-28T02:58:14.602Z,99566.41
2022-11-28T03:00:46.088Z,99566.56
2022-11-28T03:03:21.839Z,99564.22
2022-11-28T03:05:51.206Z,99567.03
2022-11-28T03:08:54.991Z,99563.84
2022-11-28T03:11:27.541Z,99562.47
2022-11-28T03:14:04.536Z,99561.13
2022-11-28T03:16:39.945Z,99565.63
2022-11-28T03:19:12.724Z,99570.97
2022-11-28T03:21:41.837Z,99564.78
2022-11-28T03:24:34.835Z,99565.47
2022-11-28T03:27:16.403Z,99567.69
2022-11-28T03:29:49.995Z,99571.56
2022-11-28T03:32:32.892Z,99573.97
2022-11-28T03:35:10.956Z,99566.00
2022-11-28T03:37:42.222Z,99554.28
2022-11-28T03:40:13.689Z,99568.09
2022-11-28T03:42:46.970Z,99559.38
2022-11-28T03:45:22.307Z,99563.78
2022-11-28T03:47:55.031Z,99563.28
2022-11-28T03:50:27.531Z,99564.97
2022-11-28T03:53:00.463Z,99561.66
2022-11-28T03:55:39.416Z,99570.91
2022-11-28T03:58:09.104Z,99561.34
2022-11-28T04:00:38.631Z,99572.25
2022-11-28T04:03:10.145Z,99574.63
2022-11-28T04:06:26.297Z,99575.97
2022-11-28T04:09:00.478Z,99569.09
2022-11-28T04:11:35.716Z,99561.72
2022-11-28T04:14:13.581Z,99557.88
2022-11-28T04:16:56.903Z,99553.63
2022-11-28T04:19:51.316Z,99555.81
2022-11-28T04:22:29.151Z,99558.50
2022-11-28T04:24:58.958Z,99548.63
2022-11-28T04:27:33.125Z,99559.53
2022-11-28T04:30:01.705Z,99569.44
2022-11-28T04:32:30.564Z,99569.13
2022-11-28T04:35:02.333Z,99560.72
2022-11-28T04:37:30.728Z,99573.31
2022-11-28T04:39:57.732Z,99560.53
2022-11-28T04:42:33.932Z,99564.22
2022-11-28T04:45:00.549Z,99564.94
2022-11-28T04:47:27.288Z,99567.25
2022-11-28T04:49:54.353Z,99562.25
2022-11-28T04:52:35.514Z,99569.28
2022-11-28T04:55:09.631Z,99558.53
2022-11-28T04:57:57.472Z,99561.38
2022-11-28T05:00:24.454Z,99552.47
2022-11-28T05:02:53.682Z,99559.56
2022-11-28T05:05:26.596Z,99554.50
2022-11-28T05:07:53.534Z,99560.88
2022-11-28T05:10:20.485Z,99562.88
2022-11-28T05:12:47.163Z,99562.22
2022-11-28T05:15:19.099Z,99558.19
2022-11-28T05:17:47.036Z,99553.47
2022-11-28T05:20:14.302Z,99551.28
2022-11-28T05:22:40.981Z,99550.25
2022-11-28T05:25:07.966Z,99560.53
2022-11-28T05:27:35.035Z,99563.22
2022-11-28T05:30:01.774Z,99560.53
2022-11-28T05:32:32.115Z,99552.28
2022-11-28T05:34:58.858Z,99547.75
2022-11-28T05:37:25.925Z,99551.63
2022-11-28T05:39:52.605Z,99559.50
2022-11-28T05:42:19.431Z,99554.47
2022-11-28T05:44:46.252Z,99557.69
2022-11-28T05:47:12.931Z,99554.47
2022-11-28T05:49:39.671Z,99570.78
2022-11-28T05:52:06.412Z,99571.28
2022-11-28T05:54:33.250Z,99585.75
2022-11-28T05:57:00.006Z,99592.09
2022-11-28T05:59:26.678Z,99594.78
2022-11-28T06:01:53.427Z,99599.34
2022-11-28T06:04:20.187Z,99603.00
2022-11-28T06:06:51.587Z,99597.81
2022-11-28T06:09:20.952Z,99610.09
2022-11-28T06:11:51.330Z,99615.31
2022-11-28T06:14:18.066Z,99613.97
2022-11-28T06:16:44.753Z,99617.63
2022-11-28T06:19:12.078Z,99619.84
2022-11-28T06:21:39.225Z,99625.75
2022-11-28T06:24:06.269Z,99613.31
2022-11-28T06:26:32.939Z,99623.72
2022-11-28T06:28:59.618Z,99625.91
2022-11-28T06:31:28.767Z,99625.56
2022-11-28T06:33:56.253Z,99621.03
2022-11-28T06:36:23.169Z,99619.38
2022-11-28T06:38:49.821Z,99626.75
2022-11-28T06:41:18.423Z,99618.69
2022-11-28T06:43:45.105Z,99625.41
2022-11-28T06:46:17.009Z,99620.72
2022-11-28T06:48:47.757Z,99623.03
2022-11-28T06:51:14.990Z,99627.75
2022-11-28T06:53:42.493Z,99633.44
2022-11-28T06:56:14.447Z,99623.72
2022-11-28T06:58:42.156Z,99632.78
2022-11-28T07:01:14.595Z,99625.38
2022-11-28T07:03:42.453Z,99629.25
2022-11-28T07:06:09.635Z,99630.25
2022-11-28T07:08:36.951Z,99632.47
2022-11-28T07:11:12.158Z,99630.09
2022-11-28T07:13:39.686Z,99636.81
2022-11-28T07:16:07.655Z,99624.56
2022-11-28T07:18:34.979Z,99631.44
2022-11-28T07:21:01.870Z,99628.59
2022-11-28T07:23:28.556Z,99628.59
2022-11-28T07:26:00.001Z,99624.03
2022-11-28T07:28:28.023Z,99626.72
2022-11-28T07:31:29.596Z,99632.78
2022-11-28T07:33:56.387Z,99639.19
2022-11-28T07:36:25.082Z,99641.66
2022-11-28T07:38:57.366Z,99639.50
2022-11-28T07:41:28.601Z,99635.81
2022-11-28T07:44:00.793Z,99643.38
2022-11-28T07:46:28.643Z,99641.50
2022-11-28T07:48:55.925Z,99653.97
2022-11-28T07:51:28.134Z,99643.88
2022-11-28T07:53:55.319Z,99645.03
2022-11-28T07:56:25.137Z,99646.22
2022-11-28T07:58:51.846Z,99657.94
2022-11-28T08:01:25.358Z,99657.28
2022-11-28T08:03:53.096Z,99660.81
2022-11-28T08:06:23.969Z,99663.69
2022-11-28T08:08:53.235Z,99661.50
2022-11-28T08:11:21.404Z,99666.22
2022-11-28T08:13:48.371Z,99657.28
2022-11-28T08:16:20.331Z,99663.84
2022-11-28T08:18:48.487Z,99663.69
2022-11-28T08:21:19.024Z,99657.44
2022-11-28T08:23:46.005Z,99657.56
2022-11-28T08:26:16.918Z,99655.56
2022-11-28T08:28:44.067Z,99656.06
2022-11-28T08:31:16.978Z,99649.50
2022-11-28T08:33:44.706Z,99644.44
2022-11-28T08:36:13.399Z,99639.56
2022-11-28T08:38:40.853Z,99639.72
2022-11-28T08:41:11.203Z,99646.97
2022-11-28T08:43:38.390Z,99643.75
2022-11-28T08:46:06.362Z,99642.06
2022-11-28T08:48:35.024Z,99641.06
2022-11-28T08:51:01.820Z,99642.91
2022-11-28T08:53:28.697Z,99643.59
2022-11-28T08:55:55.975Z,99650.13
2022-11-28T08:58:22.706Z,99653.47
2022-11-28T09:00:49.518Z,99654.50
2022-11-28T09:03:18.323Z,99657.69
2022-11-28T09:05:46.712Z,99651.97
2022-11-28T09:08:18.327Z,99661.38
2022-11-28T09:10:45.676Z,99663.53
2022-11-28T09:13:13.999Z,99653.16
2022-11-28T09:15:49.037Z,99658.69
2022-11-28T09:18:18.317Z,99654.00
2022-11-28T09:20:44.975Z,99668.09
2022-11-28T09:23:11.654Z,99670.63
2022-11-28T09:25:39.270Z,99666.28
2022-11-28T09:28:07.127Z,99670.63
2022-11-28T09:30:34.717Z,99665.41
2022-11-28T09:33:01.497Z,99665.41
2022-11-28T09:35:28.206Z,99672.34
2022-11-28T09:37:54.872Z,99679.06
2022-11-28T09:40:33.135Z,99687.47
2022-11-28T09:43:01.876Z,99684.78
2022-11-28T09:45:28.795Z,99694.22
2022-11-28T09:48:00.165Z,99687.66
2022-11-28T09:50:32.605Z,99691.03
2022-11-28T09:53:08.428Z,99699.94
2022-11-28T09:55:41.289Z,99701.97
2022-11-28T09:58:40.064Z,99703.66
2022-11-28T10:01:58.196Z,99708.38
2022-11-28T10:05:02.593Z,99705.41
2022-11-28T10:07:54.918Z,99710.94
2022-11-28T10:10:43.837Z,99708.09
2022-11-28T10:13:13.278Z,99719.88
2022-11-28T10:16:00.169Z,99710.13
2022-11-28T10:18:33.769Z,99708.09
2022-11-28T10:21:11.728Z,99697.19
2022-11-28T10:23:46.031Z,99701.91
2022-11-28T10:26:27.959Z,99701.91
2022-11-28T10:28:56.807Z,99708.81
2022-11-28T10:31:37.053Z,99704.66
2022-11-28T10:34:30.759Z,99710.53
2022-11-28T10:37:02.018Z,99718.94
2022-11-28T10:39:29.083Z,99720.28
2022-11-28T10:42:17.063Z,99722.97
2022-11-28T10:45:08.813Z,99738.47
2022-11-28T10:47:35.503Z,99740.50
2022-11-28T10:50:11.404Z,99746.19
2022-11-28T10:52:50.716Z,99745.88
2022-11-28T10:55:41.528Z,99751.75
2022-11-28T10:58:15.037Z,99752.94
2022-11-28T11:00:43.013Z,99756.97
2022-11-28T11:03:12.723Z,99760.84
2022-11-28T11:05:39.442Z,99753.59
2022-11-28T11:08:09.260Z,99761.88
2022-11-28T11:10:46.995Z,99761.53
2022-11-28T11:13:23.764Z,99759.66
2022-11-28T11:16:00.081Z,99753.94
2022-11-28T11:18:29.753Z,99744.47
2022-11-28T11:21:13.610Z,99757.94
2022-11-28T11:23:40.549Z,99752.84
2022-11-28T11:26:11.133Z,99758.88
2022-11-28T11:28:45.202Z,99748.75
2022-11-28T11:31:33.241Z,99752.22
2022-11-28T11:34:06.380Z,99759.09
2022-11-28T11:36:35.839Z,99756.72
2022-11-28T11:39:11.095Z,99775.56
2022-11-28T11:41:43.393Z,99777.72
2022-11-28T11:44:16.338Z,99776.66
2022-11-28T11:47:03.022Z,99777.09
2022-11-28T11:49:29.997Z,99771.66
2022-11-28T11:51:58.839Z,99776.50
2022-11-28T11:54:25.821Z,99782.47
2022-11-28T11:57:05.756Z,99784.28
2022-11-28T11:59:43.595Z,99788.16
2022-11-28T12:02:19.763Z,99786.31
2022-11-28T12:04:55.399Z,99791.69
2022-11-28T12:07:28.671Z,99780.56
2022-11-28T12:10:01.717Z,99791.03
2022-11-28T12:12:35.493Z,99793.03
2022-11-28T12:15:02.182Z,99788.16
2022-11-28T12:17:49.504Z,99792.34
2022-11-28T12:20:26.726Z,99802.44
2022-11-28T12:23:19.590Z,99794.28
2022-11-28T12:26:20.089Z,99799.31
2022-11-28T12:28:47.442Z,99800.72
2022-11-28T12:31:20.014Z,99796.28
2022-11-28T12:34:05.892Z,99792.56
2022-11-28T12:36:37.242Z,99790.16
2022-11-28T12:39:42.215Z,99789.50
2022-11-28T12:42:19.107Z,99803.56
2022-11-28T12:44:59.196Z,99801.53
2022-11-28T12:47:51.805Z,99809.31
2022-11-28T12:50:21.471Z,99811.31
2022-11-28T12:53:07.035Z,99822.97
2022-11-28T12:55:36.805Z,99821.25
2022-11-28T12:58:11.613Z,99823.25
2022-11-28T13:00:58.922Z,99826.88
2022-11-28T13:03:37.735Z,99829.06
2022-11-28T13:06:36.889Z,99834.47
2022-11-28T13:09:19.398Z,99833.50
2022-11-28T13:12:07.767Z,99842.28
2022-11-28T13:14:54.798Z,99842.22
2022-11-28T13:17:24.513Z,99848.19
2022-11-28T13:19:57.337Z,99846.16
2022-11-28T13:22:25.795Z,99847.56
2022-11-28T13:25:04.601Z,99854.25
2022-11-28T13:27:38.683Z,99848.88
2022-11-28T13:30:19.965Z,99850.78
2022-11-28T13:33:12.608Z,99857.53
2022-11-28T13:35:42.955Z,99856.22
2022-11-28T13:38:36.221Z,99859.63
2022-11-28T13:41:43.276Z,99869.16
2022-11-28T13:44:06.235Z,99868.84
2022-11-28T13:46:33.813Z,99866.66
2022-11-28T13:49:20.826Z,99870.38
2022-11-28T13:51:48.634Z,99870.72
2022-11-28T13:54:19.335Z,99872.59
2022-11-28T13:56:48.032Z,99881.69
2022-11-28T13:59:22.400Z,99885.91
2022-11-28T14:02:00.511Z,99886.41
2022-11-28T14:04:28.989Z,99896.22
2022-11-28T14:07:05.912Z,99895.19
2022-11-28T14:09:32.522Z,99896.22
2022-11-28T14:12:05.399Z,99898.91
2022-11-28T14:14:44.677Z,99893.84
2022-11-28T14:17:18.729Z,99898.38
2022-11-28T14:20:32.030Z,99895.50
2022-11-28T14:23:13.944Z,99896.53
2022-11-28T14:25:51.598Z,99887.25
2022-11-28T14:28:30.510Z,99897.69
2022-11-28T14:31:30.012Z,99896.81
2022-11-28T14:34:02.307Z,99896.81
2022-11-28T14:36:36.205Z,99898.84
2022-11-28T14:39:05.113Z,99903.22
2022-11-28T14:41:32.271Z,99896.81
2022-11-28T14:44:36.441Z,99900.53
2022-11-28T14:47:32.400Z,99903.88
2022-11-28T14:50:05.559Z,99911.38
2022-11-28T14:52:41.166Z,99907.34
2022-11-28T14:55:08.228Z,99912.41
2022-11-28T14:57:37.680Z,99911.41
2022-11-28T15:00:08.296Z,99914.81
2022-11-28T15:02:48.921Z,99920.91
2022-11-28T15:05:33.494Z,99922.59
2022-11-28T15:08:58.965Z,99925.28
2022-11-28T15:11:25.773Z,99933.06
2022-11-28T15:14:01.464Z,99936.44
2022-11-28T15:16:33.178Z,99939.16
2022-11-28T15:19:07.096Z,99944.03
2022-11-28T15:21:44.794Z,99937.47
2022-11-28T15:24:25.112Z,99943.53
2022-11-28T15:26:57.327Z,99945.88
2022-11-28T15:29:27.442Z,99953.81
2022-11-28T15:31:56.390Z,99952.63
2022-11-28T15:34:31.496Z,99962.22
2022-11-28T15:37:19.786Z,99965.75
2022-11-28T15:39:48.563Z,99966.41
2022-11-28T15:42:24.549Z,99971.78
2022-11-28T15:45:00.294Z,99974.31
2022-11-28T15:47:28.261Z,99970.44
2022-11-28T15:50:03.735Z,99973.06
2022-11-28T15:52:30.565Z,99989.88
2022-11-28T15:54:57.666Z,99991.53
2022-11-28T15:57:28.504Z,100000.28
2022-11-28T15:59:56.753Z,100010.53
2022-11-28T16:02:31.144Z,100025.78
2022-11-28T16:05:06.311Z,100028.13
2022-11-28T16:07:37.869Z,100037.69
2022-11-28T16:10:17.785Z,100044.53
2022-11-28T16:12:44.930Z,100045.16
2022-11-28T16:15:19.573Z,100046.47
2022-11-28T16:17:46.744Z,100044.44
2022-11-28T16:20:28.080Z,100045.56
2022-11-28T16:23:05.232Z,100056.47
2022-11-28T16:25:32.737Z,100065.69
2022-11-28T16:27:59.586Z,100068.56
2022-11-28T16:30:32.410Z,100068.22
2022-11-28T16:32:59.445Z,100073.59
2022-11-28T16:35:34.687Z,100076.97
2022-11-28T16:38:22.124Z,100080.38
2022-11-28T16:40:50.042Z,100078.69
2022-11-28T16:43:30.426Z,100084.06
2022-11-28T16:46:02.385Z,100092.44
2022-11-28T16:48:32.718Z,100089.59
2022-11-28T16:51:02.582Z,100090.75
2022-11-28T16:53:45.791Z,100096.28
2022-11-28T16:56:30.840Z,100102.84
2022-11-28T16:59:16.073Z,100106.66
2022-11-28T17:01:47.177Z,100110.19
2022-11-28T17:04:22.558Z,100118.44
2022-11-28T17:06:50.083Z,100116.19
2022-11-28T17:09:17.022Z,100119.03
2022-11-28T17:11:52.798Z,100124.59
2022-11-28T17:14:19.466Z,100121.50
2022-11-28T17:16:46.233Z,100131.72
2022-11-28T17:19:13.166Z,100129.50
2022-11-28T17:21:49.178Z,100133.34
2022-11-28T17:24:24.354Z,100142.41
2022-11-28T17:26:52.778Z,100146.56
2022-11-28T17:29:21.560Z,100143.31
2022-11-28T17:31:49.127Z,100137.00
2022-11-28T17:34:24.216Z,100152.59
2022-11-28T17:36:51.576Z,100163.81
2022-11-28T17:39:19.020Z,100167.94
2022-11-28T17:41:47.110Z,100166.69
2022-11-28T17:44:31.976Z,100172.50
2022-11-28T17:47:00.582Z,100164.22
2022-11-28T17:49:28.068Z,100175.25
2022-11-28T17:51:55.553Z,100178.25
2022-11-28T17:54:23.939Z,100178.53
2022-11-28T17:56:51.980Z,100190.84
2022-11-28T17:59:20.903Z,100186.78
2022-11-28T18:01:47.883Z,100188.78
2022-11-28T18:04:14.752Z,100183.69
2022-11-28T18:06:46.832Z,100200.81
2022-11-28T18:09:14.466Z,100202.94
2022-11-28T18:11:42.220Z,100205.06
2022-11-28T18:14:09.839Z,100213.41
2022-11-28T18:16:36.945Z,100222.59
2022-11-28T18:19:04.354Z,100227.41
2022-11-28T18:21:32.448Z,100223.31
2022-11-28T18:23:59.118Z,100222.63
2022-11-28T18:26:26.718Z,100223.75
2022-11-28T18:28:54.546Z,100226.59
2022-11-28T18:31:22.770Z,100228.53
2022-11-28T18:33:49.813Z,100237.88
2022-11-28T18:36:21.886Z,100242.56
2022-11-28T18:38:48.652Z,100246.25
2022-11-28T18:41:17.753Z,100248.94
2022-11-28T18:43:44.508Z,100251.59
2022-11-28T18:46:16.584Z,100257.13
2022-11-28T18:48:45.203Z,100258.50
2022-11-28T18:51:17.656Z,100268.81
2022-11-28T18:53:45.267Z,100269.53
2022-11-28T18:56:12.665Z,100269.53
2022-11-28T18:58:42.112Z,100272.06
2022-11-28T19:01:15.977Z,100281.84
2022-11-28T19:03:43.665Z,100290.72
2022-11-28T19:06:11.782Z,100302.16
2022-11-28T19:08:39.237Z,100298.34
2022-11-28T19:11:13.239Z,100301.75
2022-11-28T19:13:41.413Z,100313.59
2022-11-28T19:16:22.984Z,100313.03
2022-11-28T19:18:49.853Z,100318.41
2022-11-28T19:21:19.216Z,100322.78
2022-11-28T19:23:49.339Z,100325.19
2022-11-28T19:26:19.590Z,100325.03
2022-11-28T19:28:46.959Z,100327.72
2022-11-28T19:31:21.645Z,100334.53
2022-11-28T19:34:00.445Z,100338.88
2022-11-28T19:36:29.569Z,100340.59
2022-11-28T19:38:56.446Z,100335.22
2022-11-28T19:41:23.166Z,100336.50
2022-11-28T19:43:51.876Z,100343.13
2022-11-28T19:46:18.747Z,100342.97
2022-11-28T19:48:45.475Z,100349.22
2022-11-28T19:51:12.805Z,100351.72
2022-11-28T19:53:41.812Z,100354.16
2022-11-28T19:56:15.557Z,100360.78
2022-11-28T19:58:42.917Z,100371.97
2022-11-28T20:01:15.433Z,100353.72
2022-11-28T20:03:42.977Z,100366.44
2022-11-28T20:06:11.383Z,100365.03
2022-11-28T20:08:39.150Z,100370.00
2022-11-28T20:11:14.067Z,100381.69
2022-11-28T20:13:42.038Z,100378.88
2022-11-28T20:16:10.533Z,100389.88
2022-11-28T20:18:38.977Z,100386.22
2022-11-28T20:21:16.958Z,100386.38
2022-11-28T20:23:52.169Z,100385.78
2022-11-28T20:26:20.424Z,100393.56
2022-11-28T20:28:48.110Z,100396.69
2022-11-28T20:31:27.450Z,100402.06
2022-11-28T20:33:54.731Z,100402.91
2022-11-28T20:36:23.910Z,100395.84
2022-11-28T20:38:52.022Z,100407.13
2022-11-28T20:41:20.490Z,100407.28
2022-11-28T20:43:47.263Z,100408.69
2022-11-28T20:46:31.583Z,100412.06
2022-11-28T20:49:00.384Z,100409.38
2022-11-28T20:51:29.569Z,100420.00
2022-11-28T20:53:57.590Z,100421.13
2022-11-28T20:56:26.489Z,100421.41
2022-11-28T20:58:53.199Z,100426.06
2022-11-28T21:01:22.336Z,100421.28
2022-11-28T21:03:49.906Z,100429.44
2022-11-28T21:06:16.959Z,100435.41
2022-11-28T21:08:43.910Z,100432.00
2022-11-28T21:11:30.531Z,100431.56
2022-11-28T21:14:01.360Z,100433.84
2022-11-28T21:16:31.451Z,100439.63
2022-11-28T21:19:02.121Z,100430.84
2022-11-28T21:21:30.582Z,100437.94
2022-11-28T21:24:00.143Z,100434.25
2022-11-28T21:26:30.495Z,100433.13
2022-11-28T21:29:01.162Z,100435.38
2022-11-28T21:31:31.422Z,100444.13
2022-11-28T21:33:59.310Z,100442.28
2022-11-28T21:36:27.769Z,100440.59
2022-11-28T21:38:57.032Z,100450.34
2022-11-28T21:41:28.340Z,100456.59
2022-11-28T21:43:55.593Z,100455.59
2022-11-28T21:46:22.411Z,100468.75
2022-11-28T21:48:49.309Z,100474.25
2022-11-28T21:51:17.922Z,100476.09
2022-11-28T21:53:44.764Z,100476.94
2022-11-28T21:56:11.839Z,100475.97
2022-11-28T21:58:39.022Z,100480.34
2022-11-28T22:01:08.650Z,100477.78
2022-11-28T22:03:36.526Z,100485.56
2022-11-28T22:06:06.506Z,100480.91
2022-11-28T22:08:34.282Z,100498.75
2022-11-28T22:11:11.342Z,100506.09
2022-11-28T22:13:38.805Z,100505.53
2022-11-28T22:16:17.052Z,100512.88
2022-11-28T22:18:44.426Z,100511.59
2022-11-28T22:24:08.654Z,100511.88
2022-11-28T22:26:41.645Z,100508.06
2022-11-28T22:29:13.019Z,100516.28
2022-11-28T22:31:39.712Z,100515.69
2022-11-28T22:34:06.527Z,100516.41
2022-11-28T22:36:34.529Z,100523.66
2022-11-28T22:39:02.651Z,100521.66
2022-11-28T22:41:30.007Z,100523.78
2022-11-28T22:43:59.526Z,100525.31
2022-11-28T22:46:26.717Z,100531.28
2022-11-28T22:48:53.378Z,100530.13
2022-11-28T22:51:23.134Z,100536.66
2022-11-28T22:53:57.381Z,100539.47
2022-11-28T22:56:24.737Z,100551.66
2022-11-28T22:58:51.453Z,100550.53
2022-11-28T23:01:27.356Z,100557.59
2022-11-28T23:03:55.266Z,100552.78
2022-11-28T23:06:26.554Z,100548.38
2022-11-28T23:08:53.840Z,100552.22
2022-11-28T23:11:22.968Z,100540.75
2022-11-28T23:13:50.801Z,100541.47
2022-11-28T23:16:21.722Z,100555.19
2022-11-28T23:18:50.882Z,100554.88
2022-11-28T23:21:19.327Z,100557.03
2022-11-28T23:23:46.199Z,100566.22
2022-11-28T23:26:19.072Z,100567.78
2022-11-28T23:28:46.284Z,100573.31
2022-11-28T23:31:17.699Z,100574.72
2022-11-28T23:33:45.093Z,100574.84
2022-11-28T23:36:18.819Z,100568.91
2022-11-28T23:38:46.620Z,100576.25
2022-11-28T23:41:13.923Z,100573.88
2022-11-28T23:43:40.876Z,100569.47
2022-11-28T23:46:09.001Z,100570.19
2022-11-28T23:48:35.682Z,100570.31
2022-11-28T23:51:02.354Z,100578.38
2022-11-28T23:53:29.074Z,100589.72
2022-11-28T23:55:55.765Z,100594.81
2022-11-28T23:58:22.433Z,100599.50
